KPIM/PIM METAR and TAF weather

Enter ICAO airport designator
Station Type Date Time Source
KPIM METAR 2021/05/10 02:15 UTC NOAA

KPIM 100215Z AUTO 19007KT 10SM CLR 24/13 A2998 RMK AO2 T02380133


Station Type Date Time Source
KPIM Decoded METAR 2021/05/10 02:15 UTC NOAA

Station name not available
May 09, 2021 - 10:15 PM EDT / 2021.05.10 0215 UTC
Wind: from the S (190 degrees) at 8 MPH (7 KT):0
Visibility: 10 mile(s):0
Sky conditions: clear
Temperature: 74.8 F (23.8 C)
Dew Point: 55.9 F (13.3 C)
Relative Humidity: 51%
Pressure (altimeter): 29.98 in. Hg (1015 hPa)
ob: KPIM 100215Z AUTO 19007KT 10SM CLR 24/13 A2998 RMK AO2 T02380133
cycle: 2

Station Type Date Time Source
KPIM TAF UTC NOAA

Error!

Example: see airport list